createdAt,value
2023-01-22T00:00:21.045Z,0.73
2023-01-22T00:05:24.958Z,0.30
2023-01-22T00:10:30.644Z,0.20
2023-01-22T00:15:35.385Z,0.30
2023-01-22T00:20:41.648Z,0.20
2023-01-22T00:25:46.093Z,0.30
2023-01-22T00:31:03.881Z,3.30
2023-01-22T00:36:16.228Z,2.00
2023-01-22T00:41:23.821Z,1.25
2023-01-22T00:46:27.702Z,0.23
2023-01-22T00:51:33.999Z,0.20
2023-01-22T00:56:37.911Z,0.20
2023-01-22T01:01:41.795Z,0.30
2023-01-22T01:06:46.972Z,1.07
2023-01-22T01:11:51.471Z,2.60
2023-01-22T01:16:58.361Z,3.43
2023-01-22T01:22:02.782Z,1.07
2023-01-22T01:27:08.001Z,2.20
2023-01-22T01:32:14.237Z,0.40
2023-01-22T01:37:48.634Z,1.20
2023-01-22T01:42:53.400Z,0.30
2023-01-22T01:48:19.698Z,1.33
2023-01-22T01:53:23.744Z,4.23
2023-01-22T01:58:33.987Z,2.30
2023-01-22T02:03:40.100Z,0.20
2023-01-22T02:08:50.852Z,3.07
2023-01-22T02:14:12.665Z,0.98
2023-01-22T02:19:20.919Z,3.03
2023-01-22T02:24:24.892Z,2.77
2023-01-22T02:29:29.752Z,0.30
2023-01-22T02:34:33.586Z,6.37
2023-01-22T02:39:39.743Z,0.20
2023-01-22T02:44:45.912Z,0.20
2023-01-22T02:49:51.056Z,1.77
2023-01-22T02:54:54.976Z,0.20
2023-01-22T03:00:00.930Z,3.23
2023-01-22T03:05:05.409Z,11.70
2023-01-22T03:10:14.120Z,0.20
2023-01-22T03:15:37.937Z,2.63
2023-01-22T03:21:01.376Z,0.20
2023-01-22T03:26:06.204Z,8.83
2023-01-22T03:31:11.787Z,0.80
2023-01-22T03:36:18.936Z,4.97
2023-01-22T03:41:30.760Z,0.30
2023-01-22T03:46:42.929Z,0.17
2023-01-22T03:51:47.210Z,0.87
2023-01-22T03:56:55.419Z,0.20
2023-01-22T04:02:05.602Z,8.00
2023-01-22T04:07:18.436Z,1.50
2023-01-22T04:12:23.057Z,23.00
2023-01-22T04:17:28.388Z,4.07
2023-01-22T04:22:52.449Z,10.00
2023-01-22T04:27:57.424Z,1.07
2023-01-22T04:33:03.348Z,2.83
2023-01-22T04:38:18.929Z,1.23
2023-01-22T04:43:24.725Z,3.00
2023-01-22T04:48:29.591Z,1.50
2023-01-22T04:53:34.337Z,2.87
2023-01-22T04:58:42.872Z,1.93
2023-01-22T05:03:47.551Z,1.90
2023-01-22T05:08:51.551Z,1.67
2023-01-22T05:13:55.538Z,0.23
2023-01-22T05:19:01.454Z,0.43
2023-01-22T05:24:10.243Z,1.97
2023-01-22T05:29:16.957Z,1.83
2023-01-22T05:34:24.882Z,1.70
2023-01-22T05:39:29.739Z,1.60
2023-01-22T05:44:37.171Z,4.63
2023-01-22T05:49:43.116Z,1.37
2023-01-22T05:54:50.259Z,2.53
2023-01-22T05:59:54.919Z,2.33
2023-01-22T06:05:01.005Z,2.28
2023-01-22T06:10:06.308Z,13.27
2023-01-22T06:15:20.972Z,3.10
2023-01-22T06:20:33.619Z,5.90
2023-01-22T06:25:39.391Z,3.50
2023-01-22T06:30:58.280Z,1.07
2023-01-22T06:36:04.368Z,5.17
2023-01-22T06:41:10.714Z,18.40
2023-01-22T06:46:16.291Z,1.30
2023-01-22T06:51:40.299Z,2.28
2023-01-22T06:56:49.531Z,10.07
2023-01-22T07:01:54.817Z,5.97
2023-01-22T07:06:59.851Z,5.63
2023-01-22T07:12:03.938Z,2.58
2023-01-22T07:17:13.709Z,2.40
2023-01-22T07:22:17.490Z,2.40
2023-01-22T07:27:24.548Z,0.97
2023-01-22T07:32:31.879Z,2.40
2023-01-22T07:43:53.476Z,12.33
2023-01-22T07:48:57.240Z,6.67
2023-01-22T07:59:07.594Z,11.53
2023-01-22T08:04:14.138Z,17.38
2023-01-22T08:09:26.019Z,16.70
2023-01-22T08:14:30.647Z,17.23
2023-01-22T08:19:35.881Z,14.03
2023-01-22T08:24:41.841Z,0.82
2023-01-22T08:29:46.450Z,20.53
2023-01-22T08:34:56.892Z,12.17
2023-01-22T08:40:01.972Z,22.00
2023-01-22T08:45:07.273Z,19.45
2023-01-22T08:50:11.727Z,17.08
2023-01-22T08:55:17.136Z,21.40
2023-01-22T09:00:22.416Z,13.97
2023-01-22T09:05:29.992Z,6.47
2023-01-22T09:10:33.963Z,8.23
2023-01-22T09:15:38.744Z,18.60
2023-01-22T09:20:42.789Z,15.90
2023-01-22T09:25:48.772Z,9.50
2023-01-22T09:30:52.545Z,21.37
2023-01-22T09:36:08.603Z,17.58
2023-01-22T09:41:16.403Z,20.63
2023-01-22T09:46:44.076Z,14.23
2023-01-22T09:52:05.147Z,12.90
2023-01-22T09:57:30.673Z,3.67
2023-01-22T10:02:46.176Z,11.73
2023-01-22T10:08:03.000Z,5.47
2023-01-22T10:13:29.167Z,14.93
2023-01-22T10:18:41.927Z,13.97
2023-01-22T10:23:45.954Z,5.90
2023-01-22T10:28:55.613Z,13.45
2023-01-22T10:34:02.469Z,6.37
2023-01-22T10:39:15.993Z,11.57
2023-01-22T10:44:26.829Z,13.87
2023-01-22T10:49:32.056Z,27.60
2023-01-22T10:54:45.932Z,13.77
2023-01-22T10:59:57.133Z,10.30
2023-01-22T11:05:21.119Z,16.07
2023-01-22T11:10:57.654Z,13.17
2023-01-22T11:16:19.005Z,25.67
2023-01-22T11:21:33.057Z,15.23
2023-01-22T11:26:55.827Z,16.33
2023-01-22T11:32:24.020Z,10.43
2023-01-22T11:37:36.147Z,23.13
2023-01-22T11:43:00.619Z,7.20
2023-01-22T11:48:32.301Z,18.30
2023-01-22T11:54:01.991Z,6.93
2023-01-22T11:59:51.208Z,13.20
2023-01-22T12:05:38.239Z,21.13
2023-01-22T12:11:10.981Z,22.80
2023-01-22T12:16:32.789Z,16.50
2023-01-22T12:22:01.865Z,22.37
2023-01-22T12:27:16.996Z,20.47
2023-01-22T12:32:25.165Z,16.83
2023-01-22T12:37:42.042Z,21.73
2023-01-22T12:43:02.291Z,27.60
2023-01-22T12:48:25.139Z,28.57
2023-01-22T12:53:30.517Z,17.13
2023-01-22T12:58:43.080Z,12.53
2023-01-22T13:04:01.968Z,21.83
2023-01-22T13:09:25.327Z,21.93
2023-01-22T13:14:34.007Z,20.23
2023-01-22T13:19:45.802Z,22.77
2023-01-22T13:24:55.507Z,20.83
2023-01-22T13:30:22.047Z,30.67
2023-01-22T13:35:25.866Z,12.90
2023-01-22T13:40:42.730Z,21.13
2023-01-22T13:45:53.166Z,13.27
2023-01-22T13:51:12.534Z,47.60
2023-01-22T13:56:21.936Z,12.13
2023-01-22T14:01:32.083Z,6.70
2023-01-22T14:06:50.276Z,17.67
2023-01-22T14:11:54.170Z,20.57
2023-01-22T14:17:00.015Z,22.33
2023-01-22T14:22:03.829Z,8.73
2023-01-22T14:27:09.984Z,16.00
2023-01-22T14:32:13.736Z,29.70
2023-01-22T14:37:19.169Z,11.77
2023-01-22T14:42:27.272Z,17.90
2023-01-22T14:47:31.791Z,16.07
2023-01-22T14:52:43.071Z,17.17
2023-01-22T14:57:51.154Z,20.80
2023-01-22T15:03:00.959Z,24.23
2023-01-22T15:08:05.539Z,16.03
2023-01-22T15:13:11.163Z,18.87
2023-01-22T15:18:15.732Z,26.60
2023-01-22T15:23:19.714Z,26.70
2023-01-22T15:28:24.239Z,16.20
2023-01-22T15:33:29.913Z,20.10
2023-01-22T15:38:34.854Z,28.00
2023-01-22T15:43:40.432Z,17.40
2023-01-22T15:48:44.573Z,17.17
2023-01-22T15:53:56.584Z,24.92
2023-01-22T15:59:01.724Z,19.50
2023-01-22T16:04:05.738Z,19.33
2023-01-22T16:09:11.727Z,17.40
2023-01-22T16:14:15.583Z,29.17
2023-01-22T16:19:20.368Z,30.73
2023-01-22T16:24:24.179Z,23.73
2023-01-22T16:34:34.692Z,25.27
2023-01-22T16:39:38.909Z,20.80
2023-01-22T16:44:42.786Z,21.07
2023-01-22T16:49:46.928Z,29.53
2023-01-22T16:55:51.776Z,20.83
2023-01-22T17:00:55.771Z,20.47
2023-01-22T17:06:00.605Z,16.23
2023-01-22T17:11:06.610Z,28.53
2023-01-22T17:16:11.981Z,29.60
2023-01-22T17:21:19.999Z,29.27
2023-01-22T17:26:23.979Z,18.17
2023-01-22T17:31:28.095Z,16.67
2023-01-22T17:36:33.656Z,14.00
2023-01-22T17:41:37.377Z,29.90
2023-01-22T17:51:48.498Z,22.97
2023-01-22T17:56:54.938Z,21.37
2023-01-22T18:02:01.629Z,18.20
2023-01-22T18:12:11.811Z,14.47
2023-01-22T18:17:15.698Z,20.00
2023-01-22T18:22:21.967Z,15.73
2023-01-22T18:27:26.941Z,11.63
2023-01-22T18:32:32.927Z,12.53
2023-01-22T18:37:38.307Z,17.67
2023-01-22T18:42:44.522Z,17.93
2023-01-22T18:47:56.658Z,16.65
2023-01-22T18:53:04.029Z,15.23
2023-01-22T18:58:20.603Z,16.50
2023-01-22T19:03:27.718Z,12.30
2023-01-22T19:08:31.621Z,18.77
2023-01-22T19:13:36.191Z,23.70
2023-01-22T19:18:44.325Z,13.98
2023-01-22T19:23:55.170Z,9.87
2023-01-22T19:29:05.382Z,11.00
2023-01-22T19:34:13.039Z,14.50
2023-01-22T19:44:21.196Z,14.23
2023-01-22T19:49:25.781Z,10.07
2023-01-22T19:54:29.723Z,8.87
2023-01-22T19:59:35.939Z,14.40
2023-01-22T20:04:41.789Z,12.83
2023-01-22T20:09:45.756Z,8.17
2023-01-22T20:14:54.435Z,13.20
2023-01-22T20:19:58.267Z,14.67
2023-01-22T20:25:03.758Z,9.60
2023-01-22T20:30:09.006Z,10.20
2023-01-22T20:35:19.174Z,12.77
2023-01-22T20:40:26.516Z,11.47
2023-01-22T20:45:33.826Z,9.70
2023-01-22T20:50:43.041Z,9.70
2023-01-22T20:55:49.501Z,10.23
2023-01-22T21:00:56.836Z,8.50
2023-01-22T21:06:13.562Z,9.20
2023-01-22T21:11:21.304Z,12.17
2023-01-22T21:16:27.947Z,9.95
2023-01-22T21:21:38.058Z,11.18
2023-01-22T21:26:44.010Z,7.10
2023-01-22T21:31:53.281Z,9.83
2023-01-22T21:37:02.007Z,10.70
2023-01-22T21:42:25.787Z,11.77
2023-01-22T21:47:31.572Z,10.63
2023-01-22T21:52:35.460Z,11.83
2023-01-22T21:57:40.574Z,16.60
2023-01-22T22:02:46.547Z,7.97
2023-01-22T22:07:50.559Z,9.00
2023-01-22T22:12:54.461Z,6.73
2023-01-22T22:18:00.168Z,7.63
2023-01-22T22:23:05.960Z,9.93
2023-01-22T22:28:11.796Z,11.33
2023-01-22T22:33:15.820Z,7.27
2023-01-22T22:38:21.893Z,9.50
2023-01-22T22:43:25.795Z,11.47
2023-01-22T22:48:29.779Z,9.10
2023-01-22T22:53:34.698Z,7.30
2023-01-22T22:58:40.517Z,5.50
2023-01-22T23:03:46.179Z,8.70
2023-01-22T23:08:55.078Z,6.03
2023-01-22T23:14:03.469Z,10.77
2023-01-22T23:19:20.872Z,8.30
2023-01-22T23:24:28.565Z,7.97
2023-01-22T23:29:33.491Z,8.77
2023-01-22T23:34:42.174Z,10.70
2023-01-22T23:39:46.705Z,9.90
2023-01-22T23:44:50.550Z,4.83
2023-01-22T23:49:54.388Z,7.03
2023-01-22T23:55:00.054Z,15.07
